Time;durP1;ratioP1;P1;durP2;ratioP2;P2;SDS_P1;SDS_P2;PMS_P1;PMS_P2;Temp;Humidity;BMP_temperature;BMP_pressure;BME280_temperature;BME280_humidity;BME280_pressure;Samples;Min_cycle;Max_cycle;Signal;HPM_P1;HPM_P2
2022/05/15 00:00:48;;;;;;;2.70;2.50;;;;;;;12.47;100.00;100489.28;5000946;28;20239;-76
2022/05/15 00:03:20;;;;;;;3.43;3.13;;;;;;;12.44;100.00;100486.72;5002033;28;20193;-76
2022/05/15 00:05:57;;;;;;;3.40;3.10;;;;;;;12.39;100.00;100485.91;5002482;28;20287;-76
2022/05/15 00:08:24;;;;;;;3.43;3.13;;;;;;;12.34;100.00;100474.72;5003987;28;20185;-76
2022/05/15 00:10:50;;;;;;;3.37;3.07;;;;;;;12.28;100.00;100485.22;5001237;28;20205;-76
2022/05/15 00:13:17;;;;;;;3.57;3.27;;;;;;;12.23;100.00;100481.81;5023226;28;20191;-77
2022/05/15 00:15:42;;;;;;;5.17;3.47;;;;;;;12.18;100.00;100485.31;4999063;28;20212;-77
2022/05/15 00:18:09;;;;;;;5.73;3.17;;;;;;;12.10;100.00;100486.31;5004763;28;20191;-76
2022/05/15 00:20:36;;;;;;;3.27;2.97;;;;;;;12.10;100.00;100486.31;5000507;28;20666;-76
2022/05/15 00:23:02;;;;;;;3.60;2.40;;;;;;;12.06;100.00;100480.28;4997856;28;20526;-76
2022/05/15 00:25:27;;;;;;;3.10;2.60;;;;;;;12.11;100.00;100477.63;5003918;28;20270;-76
2022/05/15 00:27:53;;;;;;;3.53;2.83;;;;;;;12.12;100.00;100485.41;5005989;28;20247;-76
2022/05/15 00:30:20;;;;;;;4.30;2.90;;;;;;;12.11;100.00;100482.81;5005227;28;20576;-77
2022/05/15 00:32:46;;;;;;;3.57;3.00;;;;;;;12.13;100.00;100484.53;5003851;28;20652;-76
2022/05/15 00:35:12;;;;;;;2.87;2.67;;;;;;;12.16;100.00;100476.72;5001977;28;20268;-76
2022/05/15 00:37:37;;;;;;;3.57;2.77;;;;;;;12.21;100.00;100484.44;5004330;28;20669;-75
2022/05/15 00:40:04;;;;;;;3.00;2.80;;;;;;;12.21;100.00;100484.44;5002729;28;20187;-75
2022/05/15 00:42:30;;;;;;;2.60;2.40;;;;;;;12.21;100.00;100476.66;4996609;28;20192;-76
2022/05/15 00:44:55;;;;;;;2.80;2.60;;;;;;;12.18;100.00;100466.28;5003740;28;20180;-77
2022/05/15 00:47:20;;;;;;;2.70;2.50;;;;;;;12.13;100.00;100463.78;4999693;28;20220;-77
2022/05/15 00:49:47;;;;;;;2.67;2.47;;;;;;;12.11;100.00;100475.91;5007911;28;20250;-75
2022/05/15 00:52:18;;;;;;;2.67;2.47;;;;;;;12.12;100.00;100469.84;5000033;28;20186;-75
2022/05/15 00:54:49;;;;;;;2.83;2.53;;;;;;;12.13;100.00;100471.56;5002257;28;20180;-76
2022/05/15 00:57:32;;;;;;;2.87;2.67;;;;;;;12.15;100.00;100476.72;5005214;28;20188;-76
2022/05/15 01:00:10;;;;;;;3.90;3.07;;;;;;;12.15;100.00;100474.13;5003301;28;20181;-75
2022/05/15 01:02:40;;;;;;;3.20;2.90;;;;;;;12.11;100.00;100467.22;5002653;28;20683;-77
2022/05/15 01:05:06;;;;;;;2.73;2.40;;;;;;;12.06;100.00;100471.66;5006244;28;20205;-77
2022/05/15 01:07:31;;;;;;;3.57;3.27;;;;;;;12.03;100.00;100472.50;5003959;28;20188;-77
2022/05/15 01:09:59;;;;;;;3.17;2.97;;;;;;;12.02;100.00;100469.09;5002948;28;20204;-77
2022/05/15 01:12:25;;;;;;;3.70;3.40;;;;;;;12.02;100.00;100463.91;5009816;28;20185;-76
2022/05/15 01:14:51;;;;;;;3.37;3.07;;;;;;;11.98;100.00;100466.50;4996909;28;20746;-77
2022/05/15 01:17:16;;;;;;;3.33;2.97;;;;;;;11.97;100.00;100470.81;4997799;28;20193;-77
2022/05/15 01:19:43;;;;;;;4.30;3.33;;;;;;;11.95;100.00;100471.72;4998120;28;20271;-77
2022/05/15 01:22:11;;;;;;;3.50;3.20;;;;;;;11.90;100.00;100467.44;5002717;28;20181;-77
2022/05/15 01:24:37;;;;;;;4.47;3.40;;;;;;;11.87;100.00;100472.66;5002811;28;20200;-77
2022/05/15 01:27:07;;;;;;;3.37;3.10;;;;;;;11.83;100.00;100483.97;5005544;28;20295;-76
2022/05/15 01:29:37;;;;;;;4.23;3.47;;;;;;;11.82;100.00;100479.66;5005604;28;20207;-77
2022/05/15 01:32:03;;;;;;;3.70;3.40;;;;;;;11.82;100.00;100477.06;5008011;28;20184;-77
2022/05/15 01:34:29;;;;;;;3.03;2.83;;;;;;;11.83;100.00;100478.78;5005787;28;20198;-76
2022/05/15 01:36:55;;;;;;;3.47;3.17;;;;;;;11.85;100.00;100477.03;4993327;28;20907;-77
2022/05/15 01:39:21;;;;;;;3.13;2.87;;;;;;;11.86;100.00;100476.16;5007582;28;20188;-77
2022/05/15 01:41:47;;;;;;;3.23;2.93;;;;;;;11.86;100.00;100483.06;5000768;28;20602;-76
2022/05/15 01:44:12;;;;;;;3.50;3.20;;;;;;;11.84;100.00;100479.63;5002054;28;20593;-77
2022/05/15 01:46:38;;;;;;;4.10;3.37;;;;;;;11.82;100.00;100487.44;5003221;28;20208;-76
2022/05/15 01:49:06;;;;;;;5.23;3.60;;;;;;;11.79;100.00;100487.47;4995082;28;20231;-77
2022/05/15 01:51:37;;;;;;;3.60;3.30;;;;;;;11.74;100.00;100489.22;4998709;28;20196;-76
2022/05/15 01:54:03;;;;;;;3.97;3.57;;;;;;;11.70;100.00;100490.16;5003878;28;20219;-77
2022/05/15 01:56:29;;;;;;;3.37;3.07;;;;;;;11.65;100.00;100481.56;5005077;28;20694;-76
2022/05/15 01:58:54;;;;;;;3.87;3.50;;;;;;;11.58;100.00;100481.63;5003116;28;20192;-77
2022/05/15 02:01:20;;;;;;;3.70;3.40;;;;;;;11.56;100.00;100482.50;5003423;28;20228;-77
2022/05/15 02:03:45;;;;;;;3.50;3.20;;;;;;;11.54;100.00;100477.34;5006235;28;20186;-77
2022/05/15 02:06:11;;;;;;;4.20;3.80;;;;;;;11.53;100.00;100479.94;5007444;28;20543;-77
2022/05/15 02:08:36;;;;;;;3.83;3.40;;;;;;;11.51;100.00;100482.56;5007774;28;20192;-77
2022/05/15 02:11:02;;;;;;;3.77;3.20;;;;;;;11.48;100.00;100479.16;4998524;28;20245;-77
2022/05/15 02:13:28;;;;;;;5.10;3.87;;;;;;;11.44;100.00;100475.72;5003479;28;20199;-76
2022/05/15 02:15:54;;;;;;;3.73;3.50;;;;;;;11.43;100.00;100469.69;5004911;28;20213;-77
2022/05/15 02:18:19;;;;;;;4.03;3.63;;;;;;;11.42;100.00;100473.16;5000170;28;20664;-76
2022/05/15 02:20:45;;;;;;;3.60;3.30;;;;;;;11.42;100.00;100473.16;4998467;28;20271;-76
2022/05/15 02:23:10;;;;;;;3.77;3.40;;;;;;;11.43;100.00;100466.22;5000114;28;20197;-76
2022/05/15 02:25:37;;;;;;;5.47;3.70;;;;;;;11.43;100.00;100461.03;4999734;28;20764;-76
2022/05/15 02:28:03;;;;;;;3.70;3.40;;;;;;;11.43;100.00;100466.22;5002794;28;20188;-76
2022/05/15 02:30:29;;;;;;;3.63;3.33;;;;;;;11.42;100.00;100467.09;4998561;28;20281;-76
2022/05/15 02:32:54;;;;;;;3.50;3.20;;;;;;;11.40;100.00;100459.34;4998140;28;20211;-77
2022/05/15 02:35:20;;;;;;;3.77;3.37;;;;;;;11.40;100.00;100463.69;4992481;28;20217;-77
2022/05/15 02:37:47;;;;;;;3.60;3.30;;;;;;;11.38;100.00;100466.25;4999625;28;20199;-76
2022/05/15 02:40:13;;;;;;;3.50;3.20;;;;;;;11.36;100.00;100467.16;5000686;28;20191;-76
2022/05/15 02:42:38;;;;;;;3.33;3.03;;;;;;;11.31;100.00;100464.63;5000077;28;20193;-76
2022/05/15 02:45:05;;;;;;;3.10;2.90;;;;;;;11.28;100.00;100459.47;4999886;28;20216;-77
2022/05/15 02:47:30;;;;;;;3.50;3.27;;;;;;;11.24;100.00;100462.94;5003637;28;20284;-77
2022/05/15 02:52:40;;;;;;;3.73;3.43;;;;;;;11.17;100.00;100462.13;4998480;28;20207;-77
2022/05/15 02:55:06;;;;;;;3.90;3.50;;;;;;;11.16;100.00;100460.41;5001122;28;20200;-77
2022/05/15 02:57:31;;;;;;;3.47;3.17;;;;;;;11.15;100.00;100457.84;5000771;28;20238;-77
2022/05/15 02:59:57;;;;;;;3.63;3.30;;;;;;;11.15;100.00;100461.28;5002251;28;20193;-76
2022/05/15 03:02:22;;;;;;;3.37;3.07;;;;;;;11.15;100.00;100463.03;5008320;28;20230;-76
2022/05/15 03:04:49;;;;;;;3.60;3.30;;;;;;;11.16;100.00;100463.00;5009352;28;20275;-76
2022/05/15 03:07:15;;;;;;;5.30;3.73;;;;;;;11.16;100.00;100467.34;5002341;28;20189;-76
2022/05/15 03:09:40;;;;;;;3.60;3.30;;;;;;;11.15;100.00;100466.47;5023513;28;20270;-77
2022/05/15 03:12:06;;;;;;;3.93;3.63;;;;;;;11.15;100.00;100461.28;5006629;28;20240;-76
2022/05/15 03:14:32;;;;;;;3.93;3.53;;;;;;;11.15;100.00;100457.84;5001032;28;20660;-77
2022/05/15 03:16:57;;;;;;;4.30;3.90;;;;;;;11.11;100.00;100462.22;5000230;28;20212;-76
2022/05/15 03:19:23;;;;;;;5.60;4.10;;;;;;;11.07;100.00;100470.88;4997854;28;20185;-76
2022/05/15 03:21:48;;;;;;;4.20;3.60;;;;;;;11.01;100.00;100469.19;5000031;28;20188;-77
2022/05/15 03:24:17;;;;;;;4.40;4.00;;;;;;;10.98;100.00;100470.06;5006146;28;20188;-77
2022/05/15 03:26:45;;;;;;;3.87;3.57;;;;;;;10.92;100.00;100461.47;5011241;28;20275;-77
2022/05/15 03:29:12;;;;;;;5.17;4.17;;;;;;;10.87;100.00;100458.06;4998156;28;20259;-76
2022/05/15 03:31:39;;;;;;;4.50;4.17;;;;;;;10.84;100.00;100461.53;5007285;28;20531;-77
2022/05/15 03:34:10;;;;;;;4.07;3.70;;;;;;;10.82;100.00;100458.97;4997943;28;20675;-76
2022/05/15 03:36:36;;;;;;;4.30;3.93;;;;;;;10.79;100.00;100460.72;4997332;28;20710;-77
2022/05/15 03:39:03;;;;;;;4.00;3.67;;;;;;;10.75;100.00;100467.63;5002502;28;20181;-76
2022/05/15 03:41:28;;;;;;;4.13;3.80;;;;;;;10.74;100.00;100462.47;5006305;28;20192;-77
2022/05/15 03:43:54;;;;;;;4.33;3.97;;;;;;;10.73;100.00;100468.53;5008222;28;20245;-76
2022/05/15 03:46:19;;;;;;;5.10;4.43;;;;;;;10.68;100.00;100468.56;5002350;28;20248;-77
2022/05/15 03:48:45;;;;;;;4.93;4.30;;;;;;;10.67;100.00;100470.25;5006000;28;20195;-77
2022/05/15 03:51:10;;;;;;;4.80;4.40;;;;;;;10.65;100.00;100468.56;5002720;28;20180;-76
2022/05/15 03:53:36;;;;;;;4.40;4.10;;;;;;;10.64;100.00;100479.78;5002225;28;20277;-76
2022/05/15 03:56:03;;;;;;;5.63;4.23;;;;;;;10.63;100.00;100475.47;5001035;28;20570;-76
2022/05/15 03:58:31;;;;;;;4.17;3.77;;;;;;;10.63;100.00;100462.53;5007648;28;20270;-76
2022/05/15 04:00:56;;;;;;;4.23;3.90;;;;;;;10.64;100.00;100466.84;4999903;28;20260;-76
2022/05/15 04:03:22;;;;;;;4.00;3.70;;;;;;;10.65;100.00;100456.50;5005423;28;20220;-76
2022/05/15 04:05:48;;;;;;;3.80;3.50;;;;;;;10.70;100.00;100456.47;4998115;28;20221;-76
2022/05/15 04:08:14;;;;;;;3.97;3.67;;;;;;;10.82;100.00;100461.56;5001488;28;20181;-76
2022/05/15 04:10:39;;;;;;;4.07;3.73;;;;;;;11.10;100.00;100458.75;5000993;28;20227;-76
2022/05/15 04:13:05;;;;;;;4.33;3.93;;;;;;;11.59;100.00;100456.56;5004002;28;20201;-76
2022/05/15 04:15:31;;;;;;;5.20;4.43;;;;;;;12.06;100.00;100451.72;5005847;28;20610;-76
2022/05/15 04:17:57;;;;;;;3.97;3.47;;;;;;;12.42;100.00;100435.69;4996135;28;20606;-76
2022/05/15 04:20:26;;;;;;;4.13;3.73;;;;;;;12.56;100.00;100446.72;4998490;28;20196;-76
2022/05/15 04:22:52;;;;;;;3.70;3.40;;;;;;;12.62;100.00;100440.63;5006299;28;22025;-76
2022/05/15 04:25:18;;;;;;;4.13;3.73;;;;;;;12.57;100.00;100453.63;5003638;28;20250;-76
2022/05/15 04:27:44;;;;;;;5.10;4.60;;;;;;;12.53;100.00;100443.34;4998449;28;20216;-76
2022/05/15 04:30:12;;;;;;;4.00;3.60;;;;;;;12.61;100.00;100457.91;5008099;28;20756;-75
2022/05/15 04:32:38;;;;;;;4.13;3.83;;;;;;;12.78;100.00;100462.84;5001775;28;20191;-78
2022/05/15 04:35:05;;;;;;;4.53;3.80;;;;;;;12.99;100.00;100458.22;4995048;28;20216;-77
2022/05/15 04:37:30;;;;;;;3.97;3.50;;;;;;;13.23;100.00;100456.94;5001180;28;20565;-76
2022/05/15 04:39:56;;;;;;;4.27;3.67;;;;;;;13.29;100.00;100455.97;5006261;28;20184;-77
2022/05/15 04:42:21;;;;;;;3.60;3.00;;;;;;;13.34;100.00;100451.56;5002913;28;20184;-76
2022/05/15 04:44:46;;;;;;;3.47;3.17;;;;;;;13.33;99.91;100446.38;5004115;28;20184;-76
2022/05/15 04:47:13;;;;;;;3.43;3.13;;;;;;;13.34;99.83;100458.50;5009603;28;20177;-76
2022/05/15 04:49:38;;;;;;;3.63;3.33;;;;;;;13.36;100.00;100457.59;4995296;28;20222;-76
2022/05/15 04:52:04;;;;;;;3.53;3.23;;;;;;;13.43;100.00;100460.09;5003571;28;20255;-77
2022/05/15 04:54:29;;;;;;;3.43;3.00;;;;;;;13.49;100.00;100462.59;4999110;28;20196;-77
2022/05/15 04:56:54;;;;;;;4.10;3.20;;;;;;;13.61;100.00;100464.13;5001826;28;20619;-77
2022/05/15 04:59:20;;;;;;;3.70;3.40;;;;;;;13.68;99.80;100458.78;5002025;28;20190;-75
2022/05/15 05:01:45;;;;;;;3.40;3.07;;;;;;;13.73;99.62;100471.69;5004074;28;20275;-76
2022/05/15 05:04:10;;;;;;;3.30;2.90;;;;;;;13.81;99.38;100472.38;5004931;28;20293;-75
2022/05/15 05:06:36;;;;;;;3.67;3.37;;;;;;;14.01;98.99;100471.13;5002690;28;20217;-77
2022/05/15 05:09:02;;;;;;;3.60;3.30;;;;;;;14.34;98.13;100471.34;5002018;28;20189;-76
2022/05/15 05:11:27;;;;;;;3.07;2.87;;;;;;;14.72;96.80;100469.63;5005908;28;20190;-75
2022/05/15 05:13:53;;;;;;;3.10;2.90;;;;;;;15.06;95.76;100467.94;4998958;28;20294;-76
2022/05/15 05:16:19;;;;;;;3.40;3.10;;;;;;;15.54;94.14;100472.81;5006617;28;20558;-76
2022/05/15 05:18:44;;;;;;;4.30;3.17;;;;;;;15.78;92.70;100470.44;5000048;28;20195;-76
2022/05/15 05:21:09;;;;;;;3.20;2.90;;;;;;;15.89;90.76;100480.59;5008237;28;20275;-76
2022/05/15 05:23:35;;;;;;;3.07;2.40;;;;;;;16.54;88.63;100470.88;5000603;28;20307;-77
2022/05/15 05:26:00;;;;;;;3.03;2.70;;;;;;;17.48;85.00;100456.53;5007181;28;20219;-77
2022/05/15 05:28:26;;;;;;;3.20;2.87;;;;;;;18.41;80.51;100460.13;5005566;28;20196;-77
2022/05/15 05:30:52;;;;;;;5.67;2.70;;;;;;;19.19;77.57;100461.38;5001573;28;20208;-77
2022/05/15 05:33:20;;;;;;;2.33;2.07;;;;;;;20.00;75.14;100459.69;5006657;28;20189;-77
2022/05/15 05:35:46;;;;;;;6.47;2.90;;;;;;;20.85;73.35;100463.59;5004900;28;20217;-76
2022/05/15 05:38:12;;;;;;;3.07;2.40;;;;;;;21.58;71.64;100459.94;5001859;28;20194;-77
2022/05/15 05:40:38;;;;;;;2.40;2.20;;;;;;;22.37;70.58;100458.38;5007471;28;20179;-76
2022/05/15 05:43:03;;;;;;;2.67;2.40;;;;;;;23.14;69.64;100458.44;5001396;28;20222;-77
2022/05/15 05:45:29;;;;;;;2.40;2.20;;;;;;;23.69;68.76;100461.34;5019874;28;20739;-76
2022/05/15 05:47:55;;;;;;;2.40;2.20;;;;;;;24.14;67.85;100454.19;4993405;28;20200;-76
2022/05/15 05:50:23;;;;;;;2.37;2.13;;;;;;;24.53;66.49;100448.19;5008675;28;20327;-77
2022/05/15 05:52:48;;;;;;;2.80;2.60;;;;;;;24.92;65.84;100452.69;5006603;28;20189;-77
2022/05/15 05:55:16;;;;;;;2.50;2.30;;;;;;;25.35;65.30;100456.03;5006355;28;20214;-76
2022/05/15 05:57:42;;;;;;;2.40;2.20;;;;;;;25.80;64.90;100458.28;4998863;28;20189;-77
2022/05/15 06:00:12;;;;;;;2.20;2.00;;;;;;;26.17;64.34;100467.13;5011844;28;20195;-76
2022/05/15 06:02:38;;;;;;;2.20;1.97;;;;;;;26.44;63.99;100458.13;5005209;28;20203;-77
2022/05/15 06:05:05;;;;;;;2.50;2.10;;;;;;;26.65;62.17;100454.84;5002682;28;20283;-77
2022/05/15 06:07:33;;;;;;;3.63;2.10;;;;;;;26.43;59.16;100453.78;4997704;28;20196;-77
2022/05/15 06:10:00;;;;;;;3.00;2.07;;;;;;;26.37;59.59;100458.69;5001196;28;20711;-77
2022/05/15 06:12:26;;;;;;;2.33;1.90;;;;;;;26.43;59.62;100459.06;5014876;28;20228;-78
2022/05/15 06:14:52;;;;;;;2.40;2.10;;;;;;;26.37;58.94;100445.41;5009231;28;20184;-77
2022/05/15 06:17:23;;;;;;;2.80;2.30;;;;;;;26.30;59.08;100437.91;5000130;28;20659;-77
2022/05/15 06:19:49;;;;;;;1.97;1.80;;;;;;;26.56;59.32;100452.84;5008458;28;20663;-77
2022/05/15 06:22:15;;;;;;;2.33;2.13;;;;;;;26.91;59.69;100446.75;5013059;28;20191;-77
2022/05/15 06:24:40;;;;;;;1.93;1.80;;;;;;;27.28;59.73;100443.09;5008118;28;20322;-77
2022/05/15 06:27:06;;;;;;;2.10;1.90;;;;;;;27.78;59.23;100437.47;5003409;28;20208;-77
2022/05/15 06:29:32;;;;;;;2.13;1.60;;;;;;;28.24;58.71;100436.47;5008047;28;20223;-77
2022/05/15 06:31:58;;;;;;;1.70;1.40;;;;;;;28.63;58.22;100433.31;5012490;28;20184;-77
2022/05/15 06:34:24;;;;;;;1.60;1.50;;;;;;;28.88;57.75;100434.78;5014508;28;20188;-76
2022/05/15 06:36:49;;;;;;;1.70;1.60;;;;;;;29.08;57.50;100434.94;5008059;28;20215;-77
2022/05/15 06:39:14;;;;;;;2.00;1.80;;;;;;;29.20;57.34;100433.00;5011847;28;20651;-77
2022/05/15 06:41:40;;;;;;;1.70;1.60;;;;;;;29.16;57.11;100428.94;5011436;28;20235;-77
2022/05/15 06:44:06;;;;;;;2.57;1.90;;;;;;;29.15;56.75;100429.91;5004841;28;20565;-77
2022/05/15 06:46:32;;;;;;;2.20;1.90;;;;;;;29.12;56.15;100432.84;5007662;28;20193;-77
2022/05/15 06:48:57;;;;;;;2.97;1.90;;;;;;;28.92;55.23;100429.22;5007915;28;20200;-77
2022/05/15 06:51:23;;;;;;;1.93;1.83;;;;;;;28.65;54.18;100443.84;5007476;28;20191;-77
2022/05/15 06:53:49;;;;;;;5.07;1.80;;;;;;;28.68;54.76;100430.25;5006723;28;20212;-77
2022/05/15 06:58:59;;;;;;;3.93;1.77;;;;;;;28.72;54.48;100429.03;5005837;28;20664;-77
2022/05/15 07:01:25;;;;;;;2.00;1.87;;;;;;;28.54;54.47;100426.09;5003212;28;20192;-77
2022/05/15 07:03:51;;;;;;;2.97;1.97;;;;;;;28.38;54.57;100431.81;5003516;28;20191;-76
2022/05/15 07:06:16;;;;;;;2.80;2.03;;;;;;;28.28;54.95;100437.06;5001357;28;20220;-76
2022/05/15 07:08:42;;;;;;;2.50;1.90;;;;;;;28.18;54.66;100430.78;5001834;28;20212;-76
2022/05/15 07:11:10;;;;;;;2.43;2.10;;;;;;;28.14;54.77;100438.19;5002010;28;20708;-77
2022/05/15 07:13:36;;;;;;;2.07;1.70;;;;;;;28.23;54.96;100434.75;5000197;28;20188;-76
2022/05/15 07:16:01;;;;;;;2.30;1.90;;;;;;;27.65;54.63;100424.31;4997043;28;20291;-76
2022/05/15 07:18:27;;;;;;;3.53;1.83;;;;;;;27.39;55.79;100428.03;5003002;28;20202;-76
2022/05/15 07:20:52;;;;;;;2.83;1.80;;;;;;;27.50;55.48;100427.22;5006487;28;20784;-76
2022/05/15 07:23:19;;;;;;;2.63;2.00;;;;;;;27.21;55.43;100430.31;5003613;28;20180;-76
2022/05/15 07:25:49;;;;;;;1.80;1.70;;;;;;;27.32;55.71;100433.94;5005630;28;20220;-75
2022/05/15 07:28:15;;;;;;;2.00;1.90;;;;;;;27.37;55.86;100431.78;5010738;28;20845;-76
2022/05/15 07:30:41;;;;;;;2.23;2.03;;;;;;;27.31;56.01;100429.59;4999255;28;20209;-76
2022/05/15 07:33:07;;;;;;;3.17;1.97;;;;;;;27.13;55.97;100429.22;5009275;28;20319;-76
2022/05/15 07:35:33;;;;;;;3.73;2.10;;;;;;;26.74;56.78;100424.13;5004672;28;20680;-76
2022/05/15 07:37:59;;;;;;;2.37;1.43;;;;;;;26.74;56.92;100429.44;5009715;28;20261;-76
2022/05/15 07:40:25;;;;;;;3.47;2.00;;;;;;;26.63;57.09;100427.56;5008700;28;20272;-75
2022/05/15 07:42:50;;;;;;;2.60;1.87;;;;;;;26.66;57.43;100427.34;5005946;28;20192;-75
2022/05/15 07:45:16;;;;;;;2.53;2.10;;;;;;;26.56;57.68;100424.53;5004009;28;20216;-76
2022/05/15 07:47:43;;;;;;;2.47;2.10;;;;;;;26.48;57.70;100425.09;5003788;28;20737;-75
2022/05/15 07:50:10;;;;;;;1.80;1.70;;;;;;;26.41;58.07;100425.66;5002290;28;20200;-78
2022/05/15 07:52:36;;;;;;;2.90;1.97;;;;;;;26.41;58.38;100418.53;4998289;28;20223;-76
2022/05/15 07:55:05;;;;;;;2.40;2.00;;;;;;;26.51;58.61;100417.88;5005148;28;20223;-76
2022/05/15 07:57:32;;;;;;;4.53;1.90;;;;;;;26.50;58.25;100413.53;4998348;28;20233;-76
2022/05/15 07:59:57;;;;;;;2.07;1.70;;;;;;;26.11;58.18;100411.03;5005346;28;20661;-75
2022/05/15 08:02:22;;;;;;;3.83;1.70;;;;;;;25.76;58.95;100406.41;5003608;28;20188;-76
2022/05/15 08:10:16;;;;;;;5.70;2.20;;;;;;;25.20;60.36;100407.63;4996803;28;20726;-75
2022/05/15 08:12:41;;;;;;;3.07;1.70;;;;;;;24.90;60.23;100406.09;5000957;28;20184;-76
2022/05/15 08:15:08;;;;;;;2.33;2.10;;;;;;;24.39;60.83;100402.34;5005328;28;20742;-75
2022/05/15 08:17:34;;;;;;;3.20;1.90;;;;;;;24.30;61.52;100402.94;5002325;28;20192;-78
2022/05/15 08:25:27;;;;;;;2.80;2.10;;;;;;;24.26;62.93;100394.38;5005751;28;20226;-77
2022/05/15 08:27:52;;;;;;;2.87;1.90;;;;;;;24.45;62.73;100398.44;5003760;28;20268;-76
2022/05/15 08:30:20;;;;;;;3.57;1.87;;;;;;;24.63;62.76;100402.53;5009181;28;20204;-77
2022/05/15 08:32:45;;;;;;;2.87;1.80;;;;;;;24.57;62.74;100395.00;4999855;28;20193;-78
2022/05/15 08:35:11;;;;;;;3.90;1.87;;;;;;;24.50;63.14;100394.53;4995684;28;20204;-77
2022/05/15 08:37:37;;;;;;;2.80;1.53;;;;;;;24.64;63.18;100390.16;4997015;28;20204;-78
2022/05/15 08:40:03;;;;;;;2.83;2.00;;;;;;;24.57;63.27;100387.06;4998713;28;20209;-77
2022/05/15 08:42:48;;;;;;;3.00;1.80;;;;;;;24.49;63.46;100386.72;5000689;28;20191;-78
2022/05/15 08:45:16;;;;;;;11.50;2.70;;;;;;;24.27;63.00;100384.63;4995954;28;20207;-76
2022/05/15 08:47:46;;;;;;;3.83;2.20;;;;;;;24.07;64.03;100392.03;5002444;28;20185;-77
2022/05/15 08:50:15;;;;;;;4.97;1.73;;;;;;;24.19;64.43;100388.63;5009459;28;20204;-77
2022/05/15 08:53:02;;;;;;;2.97;1.80;;;;;;;24.03;63.41;100380.84;5005018;28;21156;-78
2022/05/15 08:56:07;;;;;;;4.37;1.80;;;;;;;24.05;64.13;100388.66;5002797;28;20291;-75
2022/05/15 08:58:52;;;;;;;4.33;1.83;;;;;;;24.20;63.41;100395.59;4982008;28;20628;-77
2022/05/15 09:01:26;;;;;;;3.60;1.87;;;;;;;24.33;63.33;100393.00;4997923;28;20208;-78
2022/05/15 09:03:53;;;;;;;3.60;1.93;;;;;;;24.46;63.40;100390.41;5000829;28;20198;-76
2022/05/15 09:06:32;;;;;;;7.70;2.17;;;;;;;24.51;62.82;100396.22;5002232;28;20212;-79
2022/05/15 09:09:20;;;;;;;6.80;1.90;;;;;;;24.66;62.74;100390.88;5002761;28;20615;-77
2022/05/15 09:11:57;;;;;;;2.13;1.90;;;;;;;24.62;63.02;100379.66;5003830;28;20199;-77
2022/05/15 09:14:48;;;;;;;2.70;1.80;;;;;;;24.80;62.87;100371.47;5006878;28;20191;-77
2022/05/15 09:17:21;;;;;;;4.10;1.90;;;;;;;24.78;63.01;100378.66;4997742;28;20656;-75
2022/05/15 09:19:55;;;;;;;2.87;2.07;;;;;;;24.72;63.76;100379.09;4999005;28;20196;-78
2022/05/15 09:22:24;;;;;;;5.03;1.93;;;;;;;24.76;64.00;100376.13;5003362;28;20202;-78
2022/05/15 09:24:51;;;;;;;3.53;1.70;;;;;;;24.73;63.42;100372.84;4999208;28;20195;-77
2022/05/15 09:27:27;;;;;;;3.13;2.07;;;;;;;24.94;63.74;100374.03;4999327;28;20664;-76
2022/05/15 09:30:00;;;;;;;3.43;1.87;;;;;;;24.72;63.63;100363.22;5000043;28;20200;-77
2022/05/15 09:32:38;;;;;;;3.10;1.80;;;;;;;25.02;62.67;100368.19;4999314;28;20348;-76
2022/05/15 09:35:17;;;;;;;6.70;2.13;;;;;;;25.03;62.65;100372.56;5003730;28;20180;-76
2022/05/15 09:40:40;;;;;;;4.63;1.97;;;;;;;24.58;62.00;100388.75;5002045;28;20318;-77
2022/05/15 09:43:32;;;;;;;6.33;1.97;;;;;;;24.70;62.87;100367.75;5003491;28;20326;-77
2022/05/15 09:46:05;;;;;;;5.93;2.00;;;;;;;24.56;63.33;100379.22;5002599;28;20216;-77
2022/05/15 09:48:36;;;;;;;3.97;1.93;;;;;;;24.56;63.92;100358.91;5001803;28;20196;-77
2022/05/15 09:51:07;;;;;;;5.53;1.90;;;;;;;24.37;63.97;100364.56;4992433;28;20694;-77
2022/05/15 09:53:43;;;;;;;1.97;1.77;;;;;;;24.39;64.28;100364.47;5003143;28;20188;-77
2022/05/15 09:56:29;;;;;;;3.80;2.00;;;;;;;24.39;64.14;100364.47;5003032;28;20226;-77
2022/05/15 09:59:12;;;;;;;4.70;1.60;;;;;;;24.51;63.75;100363.66;4997055;28;22144;-77
2022/05/15 10:01:47;;;;;;;4.07;2.07;;;;;;;24.53;63.29;100352.97;4999838;28;20685;-77
2022/05/15 10:04:38;;;;;;;3.03;1.93;;;;;;;24.55;63.75;100345.78;5018357;28;20250;-76
2022/05/15 10:07:06;;;;;;;3.33;1.90;;;;;;;24.63;63.18;100346.13;5000708;28;20671;-77
2022/05/15 10:09:34;;;;;;;4.20;2.00;;;;;;;24.70;62.82;100342.13;5004959;28;20608;-76
2022/05/15 10:12:19;;;;;;;3.50;2.10;;;;;;;24.73;63.21;100334.00;5003910;28;20553;-76
2022/05/15 10:14:52;;;;;;;4.67;1.83;;;;;;;24.79;62.19;100343.31;5013524;28;20267;-76
2022/05/15 10:17:19;;;;;;;5.57;2.03;;;;;;;24.86;62.65;100336.66;5000266;28;20184;-75
2022/05/15 10:20:07;;;;;;;5.13;2.13;;;;;;;24.83;62.27;100333.34;4998701;28;20193;-75
2022/05/15 10:22:45;;;;;;;4.00;2.20;;;;;;;24.87;62.62;100333.06;4997626;28;20192;-75
2022/05/15 10:25:21;;;;;;;2.50;1.60;;;;;;;24.76;62.14;100330.28;4998297;28;20212;-76
2022/05/15 10:28:01;;;;;;;3.73;1.90;;;;;;;24.83;62.30;100322.75;4998262;28;20258;-75
2022/05/15 10:30:33;;;;;;;2.87;1.77;;;;;;;24.98;62.56;100321.72;5010309;28;20207;-76
2022/05/15 10:33:06;;;;;;;4.93;2.03;;;;;;;25.18;62.88;100317.69;4998681;28;20208;-76
2022/05/15 10:35:56;;;;;;;3.00;2.03;;;;;;;25.19;62.47;100319.38;5002513;28;20246;-76
2022/05/15 10:38:33;;;;;;;3.00;2.07;;;;;;;25.21;62.43;100325.41;4995688;28;20196;-77
2022/05/15 10:41:19;;;;;;;3.67;2.00;;;;;;;25.33;61.66;100317.56;5002990;28;20212;-77
2022/05/15 10:43:44;;;;;;;5.30;1.80;;;;;;;25.38;61.58;100307.47;5000378;28;20199;-76
2022/05/15 10:46:33;;;;;;;2.80;2.30;;;;;;;25.29;62.26;100301.03;5000837;28;20208;-78
2022/05/15 10:49:17;;;;;;;4.90;2.20;;;;;;;25.34;61.51;100301.56;5001102;28;20189;-77
2022/05/15 10:51:47;;;;;;;4.33;2.17;;;;;;;25.41;61.33;100300.19;4991236;28;20216;-78
2022/05/15 10:57:25;;;;;;;3.70;1.97;;;;;;;25.26;61.03;100303.88;4999712;28;20299;-77
2022/05/15 11:00:20;;;;;;;2.50;1.80;;;;;;;25.26;62.55;100294.16;4999926;28;20284;-76
2022/05/15 11:02:57;;;;;;;5.47;2.57;;;;;;;25.25;61.55;100292.47;4997519;28;20196;-77
2022/05/15 11:05:27;;;;;;;2.37;2.10;;;;;;;25.29;61.52;100287.78;5000793;28;20212;-76
2022/05/15 11:07:58;;;;;;;3.67;2.27;;;;;;;25.30;61.39;100299.25;5000838;28;20529;-76
2022/05/15 11:10:48;;;;;;;3.07;2.13;;;;;;;25.38;61.97;100283.63;4998469;28;20686;-76
2022/05/15 11:13:21;;;;;;;1.73;1.60;;;;;;;25.63;60.99;100282.75;5000318;28;20275;-76
2022/05/15 11:16:01;;;;;;;2.53;1.80;;;;;;;25.77;61.14;100273.81;5000649;28;20208;-77
2022/05/15 11:18:32;;;;;;;5.03;2.27;;;;;;;25.83;61.08;100285.75;5000173;28;20196;-76
2022/05/15 11:21:06;;;;;;;4.83;2.00;;;;;;;25.84;61.16;100279.50;4999483;28;20192;-78
2022/05/15 11:23:43;;;;;;;6.00;2.20;;;;;;;25.90;61.38;100273.72;4995464;28;20203;-78
2022/05/15 11:26:27;;;;;;;3.73;2.10;;;;;;;26.07;61.01;100267.19;5020476;28;20219;-76
2022/05/15 11:28:56;;;;;;;5.00;2.23;;;;;;;25.95;61.19;100274.25;4996486;28;20290;-77
2022/05/15 11:31:28;;;;;;;6.03;2.83;;;;;;;25.83;60.32;100273.34;5001145;28;20302;-78
2022/05/15 11:34:02;;;;;;;3.40;2.17;;;;;;;26.00;60.92;100258.00;5013073;28;20796;-76
2022/05/15 11:36:40;;;;;;;2.47;1.70;;;;;;;26.08;59.85;100262.72;5006519;28;20212;-77
2022/05/15 11:39:05;;;;;;;4.33;1.90;;;;;;;26.15;60.52;100266.66;5000119;28;20188;-77
2022/05/15 11:41:34;;;;;;;3.27;2.10;;;;;;;26.32;60.33;100258.22;5004204;28;20729;-76
2022/05/15 11:44:03;;;;;;;10.33;3.50;;;;;;;26.33;61.04;100259.94;5009154;28;20184;-77
2022/05/15 11:46:46;;;;;;;3.43;2.10;;;;;;;26.37;60.18;100251.75;5010686;28;20741;-76
2022/05/15 11:49:27;;;;;;;2.50;2.00;;;;;;;26.54;60.79;100248.63;5000202;28;20718;-76
2022/05/15 11:52:14;;;;;;;3.00;1.80;;;;;;;26.58;59.63;100249.25;5000852;28;20189;-77